Time;durP1;ratioP1;P1;durP2;ratioP2;P2;SDS_P1;SDS_P2;PMS_P1;PMS_P2;Temp;Humidity;BMP_temperature;BMP_pressure;BME280_temperature;BME280_humidity;BME280_pressure;Samples;Min_cycle;Max_cycle;Signal;HPM_P1;HPM_P2
2022/04/12 00:00:30;;;;;;;6.32;1.75;;;6.50;99.90;;;;;;5079068;28;20462;-66
2022/04/12 00:02:55;;;;;;;6.75;2.15;;;6.50;99.90;;;;;;5077769;28;20032;-66
2022/04/12 00:05:21;;;;;;;4.10;1.48;;;6.70;99.90;;;;;;5060360;28;20062;-66
2022/04/12 00:07:47;;;;;;;6.57;2.30;;;6.70;99.90;;;;;;5083948;28;20024;-66
2022/04/12 00:10:13;;;;;;;6.28;2.50;;;6.70;99.90;;;;;;5068200;28;20039;-66
2022/04/12 00:12:40;;;;;;;4.53;1.88;;;6.90;99.90;;;;;;5074584;28;20555;-66
2022/04/12 00:15:07;;;;;;;7.90;2.45;;;6.80;99.90;;;;;;5063775;28;20055;-66
2022/04/12 00:20:19;;;;;;;5.47;1.98;;;6.60;99.90;;;;;;5080056;28;20110;-66
2022/04/12 00:22:45;;;;;;;4.90;1.85;;;6.60;99.90;;;;;;5079589;28;20035;-66
2022/04/12 00:25:11;;;;;;;5.63;2.13;;;6.50;99.90;;;;;;5088071;28;20024;-66
2022/04/12 00:27:38;;;;;;;6.38;2.20;;;6.30;99.90;;;;;;5080233;28;20048;-66
2022/04/12 00:30:09;;;;;;;5.03;1.85;;;6.30;99.90;;;;;;5086600;28;20020;-66
2022/04/12 00:32:35;;;;;;;4.70;1.95;;;6.50;99.90;;;;;;5080356;28;20035;-66
2022/04/12 00:35:02;;;;;;;6.88;2.28;;;6.60;99.90;;;;;;5085077;28;20438;-66
2022/04/12 00:37:28;;;;;;;6.50;2.40;;;6.50;99.90;;;;;;5076881;28;20020;-66
2022/04/12 00:39:54;;;;;;;5.22;1.98;;;6.50;99.90;;;;;;5060421;28;20036;-66
2022/04/12 00:42:21;;;;;;;4.70;1.92;;;6.50;99.90;;;;;;5072016;28;20392;-66
2022/04/12 00:44:47;;;;;;;4.80;2.00;;;6.60;99.90;;;;;;5082341;28;20089;-66
2022/04/12 00:47:13;;;;;;;4.70;1.58;;;6.50;99.90;;;;;;5089492;28;20016;-66
2022/04/12 00:49:39;;;;;;;5.70;2.15;;;6.50;99.90;;;;;;5077700;28;20051;-66
2022/04/12 00:52:06;;;;;;;3.40;1.80;;;6.60;99.90;;;;;;5079958;28;20032;-66
2022/04/12 00:54:33;;;;;;;3.95;1.63;;;6.60;99.90;;;;;;5078125;28;20042;-66
2022/04/12 00:56:59;;;;;;;5.72;1.52;;;6.60;99.90;;;;;;5080908;28;20057;-66
2022/04/12 00:59:26;;;;;;;5.32;1.85;;;6.60;99.90;;;;;;5078132;28;20050;-66
2022/04/12 01:01:52;;;;;;;3.67;1.80;;;6.70;99.90;;;;;;5076964;28;20031;-66
2022/04/12 01:04:18;;;;;;;3.95;1.63;;;6.70;99.90;;;;;;5085628;28;20024;-65
2022/04/12 01:06:44;;;;;;;6.18;2.00;;;6.50;99.90;;;;;;5078623;28;20029;-65
2022/04/12 01:09:10;;;;;;;4.45;1.90;;;6.50;99.90;;;;;;5071051;28;20046;-66
2022/04/12 01:11:36;;;;;;;4.85;2.05;;;6.60;99.90;;;;;;5081385;28;20020;-66
2022/04/12 01:14:02;;;;;;;4.93;2.28;;;6.50;99.90;;;;;;5078126;28;20031;-66
2022/04/12 01:16:28;;;;;;;4.97;1.83;;;6.60;99.90;;;;;;5063042;28;20422;-66
2022/04/12 01:18:54;;;;;;;5.00;1.85;;;6.50;99.90;;;;;;5086722;28;20012;-66
2022/04/12 01:21:21;;;;;;;6.70;2.10;;;6.50;99.90;;;;;;5063029;28;20021;-66
2022/04/12 01:24:16;;;;;;;5.35;2.10;;;6.50;99.90;;;;;;5065647;28;20442;-66
2022/04/12 01:26:41;;;;;;;6.18;2.10;;;6.70;99.90;;;;;;5069240;28;20050;-66
2022/04/12 01:29:07;;;;;;;3.58;1.70;;;6.90;99.90;;;;;;5082967;28;20036;-66
2022/04/12 01:31:33;;;;;;;7.35;2.40;;;6.90;99.90;;;;;;5089226;28;20039;-66
2022/04/12 01:33:58;;;;;;;5.32;1.95;;;7.20;99.90;;;;;;5082184;28;20024;-66
2022/04/12 01:36:24;;;;;;;5.07;2.22;;;7.20;99.90;;;;;;5083410;28;20086;-65
2022/04/12 01:38:49;;;;;;;6.22;1.90;;;7.40;99.90;;;;;;5080820;28;20059;-65
2022/04/12 01:41:15;;;;;;;5.90;2.15;;;7.40;99.90;;;;;;5087222;28;20020;-65
2022/04/12 01:43:41;;;;;;;5.55;2.00;;;7.40;99.90;;;;;;5070882;28;20076;-65
2022/04/12 01:46:07;;;;;;;5.57;2.22;;;7.60;99.90;;;;;;5082400;28;20035;-65
2022/04/12 01:48:32;;;;;;;4.75;1.85;;;7.70;99.90;;;;;;5082888;28;20462;-66
2022/04/12 01:50:58;;;;;;;8.07;2.67;;;7.60;99.90;;;;;;5092179;28;20046;-66
2022/04/12 01:53:24;;;;;;;6.13;2.13;;;7.70;99.90;;;;;;5085833;28;20017;-66
2022/04/12 01:55:49;;;;;;;2.80;1.55;;;7.70;99.90;;;;;;5082769;28;20069;-66
2022/04/12 01:58:15;;;;;;;6.45;2.28;;;7.70;99.90;;;;;;5087193;28;20769;-66
2022/04/12 02:00:42;;;;;;;5.97;2.42;;;7.70;99.90;;;;;;5086768;28;20111;-66
2022/04/12 02:03:09;;;;;;;4.50;1.85;;;7.70;99.90;;;;;;5071820;28;20016;-66
2022/04/12 02:05:34;;;;;;;7.18;2.45;;;7.90;99.90;;;;;;5084518;28;20039;-66
2022/04/12 02:08:00;;;;;;;4.30;1.70;;;7.90;99.90;;;;;;5084531;28;20422;-66
2022/04/12 02:10:26;;;;;;;3.95;1.80;;;8.10;99.90;;;;;;5068297;28;20047;-67
2022/04/12 02:12:51;;;;;;;3.45;1.40;;;8.10;99.90;;;;;;5067009;28;20033;-66
2022/04/12 02:15:17;;;;;;;6.03;2.03;;;8.10;99.90;;;;;;5081640;28;20472;-66
2022/04/12 02:17:43;;;;;;;5.60;1.98;;;8.10;99.90;;;;;;5064261;28;20023;-66
2022/04/12 02:20:09;;;;;;;5.43;1.70;;;8.20;99.90;;;;;;5081072;28;20074;-66
2022/04/12 02:22:35;;;;;;;4.93;1.75;;;8.20;99.90;;;;;;5083075;28;20387;-66
2022/04/12 02:25:01;;;;;;;5.18;1.92;;;8.40;99.90;;;;;;5084847;28;20028;-66
2022/04/12 02:27:27;;;;;;;7.10;2.33;;;8.50;99.90;;;;;;5062600;28;20443;-66
2022/04/12 02:29:52;;;;;;;5.38;2.00;;;8.50;99.90;;;;;;5085604;28;20036;-66
2022/04/12 02:32:18;;;;;;;3.80;1.35;;;8.50;99.90;;;;;;5086398;28;20162;-66
2022/04/12 02:34:44;;;;;;;6.65;2.28;;;8.60;99.90;;;;;;5083100;28;20464;-66
2022/04/12 02:37:09;;;;;;;3.33;1.50;;;8.50;99.90;;;;;;5088829;28;20020;-66
2022/04/12 02:39:35;;;;;;;6.65;2.05;;;8.50;99.90;;;;;;5084274;28;20028;-66
2022/04/12 02:42:01;;;;;;;7.40;1.85;;;8.40;99.90;;;;;;5084041;28;20020;-66
2022/04/12 02:44:26;;;;;;;5.57;2.00;;;8.50;99.90;;;;;;5079051;28;20073;-66
2022/04/12 02:46:52;;;;;;;5.88;1.85;;;8.40;99.90;;;;;;5086817;28;20540;-65
2022/04/12 02:49:18;;;;;;;3.97;1.80;;;8.30;99.90;;;;;;5086759;28;20020;-65
2022/04/12 02:51:45;;;;;;;5.10;1.95;;;8.30;99.90;;;;;;5072203;28;20025;-66
2022/04/12 02:54:11;;;;;;;2.90;1.25;;;8.20;99.90;;;;;;5084530;28;20527;-65
2022/04/12 02:56:37;;;;;;;5.63;1.48;;;8.20;99.90;;;;;;5064200;28;20025;-65
2022/04/12 02:59:03;;;;;;;5.68;2.20;;;8.10;99.90;;;;;;5080671;28;20027;-66
2022/04/12 03:01:29;;;;;;;4.90;1.90;;;8.00;99.90;;;;;;5084014;28;20028;-66
2022/04/12 03:03:55;;;;;;;5.22;2.10;;;8.20;99.90;;;;;;5077895;28;20040;-66
2022/04/12 03:06:20;;;;;;;5.32;1.75;;;8.20;99.90;;;;;;5080203;28;20539;-66
2022/04/12 03:08:46;;;;;;;5.78;2.15;;;8.40;99.90;;;;;;5085311;28;20472;-66
2022/04/12 03:11:11;;;;;;;6.10;2.05;;;8.50;99.90;;;;;;5077654;28;20559;-66
2022/04/12 03:13:37;;;;;;;5.38;2.17;;;8.40;99.90;;;;;;5084608;28;20086;-66
2022/04/12 03:16:03;;;;;;;5.22;2.10;;;8.60;99.90;;;;;;5078540;28;20545;-66
2022/04/12 03:18:29;;;;;;;3.15;1.52;;;8.70;99.90;;;;;;5071265;28;20028;-66
2022/04/12 03:20:54;;;;;;;5.75;2.03;;;8.80;99.90;;;;;;5079884;28;20062;-65
2022/04/12 03:23:20;;;;;;;4.93;1.90;;;8.80;99.90;;;;;;5077539;28;20115;-65
2022/04/12 03:25:46;;;;;;;4.72;1.75;;;9.20;99.90;;;;;;5079783;28;20036;-65
2022/04/12 03:28:11;;;;;;;6.97;2.20;;;9.30;99.90;;;;;;5088740;28;20103;-65
2022/04/12 03:30:37;;;;;;;5.57;1.88;;;9.30;99.90;;;;;;5082248;28;20028;-65
2022/04/12 03:33:02;;;;;;;3.30;1.55;;;9.50;99.90;;;;;;5078586;28;20099;-65
2022/04/12 03:35:28;;;;;;;5.30;1.55;;;9.60;99.90;;;;;;5085757;28;20044;-66
2022/04/12 03:37:59;;;;;;;6.15;2.10;;;9.60;99.90;;;;;;5083144;28;20468;-66
2022/04/12 03:40:27;;;;;;;5.40;1.45;;;9.70;99.90;;;;;;5082586;28;20032;-66
2022/04/12 03:42:53;;;;;;;6.53;2.00;;;9.70;99.90;;;;;;5080618;28;20055;-66
2022/04/12 03:45:19;;;;;;;4.40;1.63;;;9.60;99.90;;;;;;5080657;28;20028;-66
2022/04/12 03:47:45;;;;;;;7.30;1.85;;;9.70;99.90;;;;;;5079498;28;20069;-66
2022/04/12 03:50:10;;;;;;;4.40;1.65;;;9.70;99.90;;;;;;5068239;28;20016;-66
2022/04/12 03:52:36;;;;;;;6.35;1.55;;;9.60;99.90;;;;;;5091142;28;20024;-66
2022/04/12 03:55:02;;;;;;;6.40;2.28;;;9.70;99.90;;;;;;5079264;28;20024;-66
2022/04/12 03:57:28;;;;;;;5.50;1.83;;;9.70;99.90;;;;;;5076364;28;20355;-66
2022/04/12 03:59:53;;;;;;;4.68;1.75;;;9.60;99.90;;;;;;5080022;28;20028;-66
2022/04/12 04:02:20;;;;;;;4.53;1.60;;;9.70;99.90;;;;;;5059708;28;20541;-66
2022/04/12 04:04:46;;;;;;;7.15;2.08;;;9.60;99.90;;;;;;5081523;28;20365;-66
2022/04/12 04:07:11;;;;;;;4.10;1.55;;;9.60;99.90;;;;;;5084732;28;20024;-66
2022/04/12 04:09:37;;;;;;;3.20;1.45;;;9.60;99.90;;;;;;5077707;28;20064;-66
2022/04/12 04:12:03;;;;;;;4.55;1.77;;;9.70;99.90;;;;;;5073817;28;20023;-66
2022/04/12 04:14:31;;;;;;;6.70;2.13;;;9.70;99.90;;;;;;5060007;28;20471;-65
2022/04/12 04:17:00;;;;;;;4.95;1.90;;;9.70;99.90;;;;;;5078439;28;20506;-66
2022/04/12 04:19:26;;;;;;;4.88;1.88;;;9.70;99.90;;;;;;5077837;28;20533;-66
2022/04/12 04:21:51;;;;;;;6.03;1.83;;;9.70;99.90;;;;;;5078488;28;20024;-66
2022/04/12 04:24:17;;;;;;;6.47;2.25;;;9.70;99.90;;;;;;5081761;28;20032;-66
2022/04/12 04:26:44;;;;;;;4.65;1.77;;;9.70;99.90;;;;;;5078197;28;20067;-66
2022/04/12 04:29:09;;;;;;;5.60;1.83;;;9.80;99.90;;;;;;5074530;28;20036;-66
2022/04/12 04:31:35;;;;;;;6.00;1.85;;;9.90;99.90;;;;;;5074659;28;20028;-66
2022/04/12 04:34:01;;;;;;;7.85;2.30;;;10.10;99.90;;;;;;5078033;28;20036;-65
2022/04/12 04:36:26;;;;;;;9.77;1.90;;;10.10;99.90;;;;;;5074641;28;20028;-65
2022/04/12 04:38:52;;;;;;;5.60;1.45;;;10.10;99.90;;;;;;5085894;28;20482;-65
2022/04/12 04:41:18;;;;;;;4.47;1.48;;;10.10;99.90;;;;;;5080827;28;20020;-65
2022/04/12 04:43:45;;;;;;;5.72;1.65;;;10.10;99.90;;;;;;5062405;28;20031;-65
2022/04/12 04:46:12;;;;;;;4.30;1.80;;;10.10;99.90;;;;;;5069553;28;20028;-65
2022/04/12 04:48:38;;;;;;;3.15;1.35;;;10.00;99.90;;;;;;5082931;28;20550;-65
2022/04/12 04:51:04;;;;;;;5.28;1.73;;;10.10;99.90;;;;;;5082828;28;20383;-65
2022/04/12 04:53:30;;;;;;;11.00;2.28;;;10.10;99.90;;;;;;5084909;28;20021;-66
2022/04/12 04:55:55;;;;;;;5.20;1.70;;;10.10;99.90;;;;;;5077400;28;20052;-66
2022/04/12 04:58:21;;;;;;;5.82;2.25;;;10.10;99.90;;;;;;5069610;28;20073;-66
2022/04/12 05:00:47;;;;;;;5.05;1.80;;;10.10;99.90;;;;;;5080988;28;20035;-66
2022/04/12 05:03:12;;;;;;;6.15;2.13;;;10.10;99.90;;;;;;5080432;28;20031;-66
2022/04/12 05:05:38;;;;;;;4.90;1.90;;;10.10;99.90;;;;;;5086937;28;20387;-66
2022/04/12 05:08:04;;;;;;;3.65;1.63;;;10.10;99.90;;;;;;5064115;28;20051;-66
2022/04/12 05:10:32;;;;;;;4.32;1.92;;;10.20;99.90;;;;;;5079329;28;20566;-67
2022/04/12 05:12:59;;;;;;;9.80;1.88;;;10.20;99.90;;;;;;5082771;28;20031;-66
2022/04/12 05:15:27;;;;;;;2.60;1.20;;;10.20;99.90;;;;;;5056217;28;20017;-66
2022/04/12 05:17:53;;;;;;;4.03;1.45;;;10.30;99.90;;;;;;5074693;28;20020;-66
2022/04/12 05:20:20;;;;;;;4.13;1.63;;;10.30;99.90;;;;;;5055641;28;20020;-66
2022/04/12 05:22:46;;;;;;;6.03;1.83;;;10.40;99.90;;;;;;5079870;28;20384;-66
2022/04/12 05:25:12;;;;;;;3.38;1.27;;;10.40;99.90;;;;;;5083428;28;20024;-66
2022/04/12 05:27:37;;;;;;;4.75;1.60;;;10.40;99.90;;;;;;5061432;28;20416;-66
2022/04/12 05:30:07;;;;;;;3.45;1.50;;;10.30;99.90;;;;;;5083877;28;20031;-66
2022/04/12 05:32:33;;;;;;;5.00;1.60;;;10.40;99.90;;;;;;5076621;28;20131;-66
2022/04/12 05:34:58;;;;;;;8.43;2.20;;;10.30;99.90;;;;;;5080824;28;20120;-66
2022/04/12 05:37:24;;;;;;;4.55;1.63;;;10.30;99.90;;;;;;5078234;28;20132;-66
2022/04/12 05:39:50;;;;;;;4.72;1.58;;;10.30;99.90;;;;;;5077614;28;20067;-67
2022/04/12 05:42:15;;;;;;;4.95;1.30;;;10.30;99.90;;;;;;5080139;28;20032;-66
2022/04/12 05:44:41;;;;;;;4.25;1.52;;;10.30;99.90;;;;;;5079602;28;20369;-66
2022/04/12 05:47:12;;;;;;;5.85;1.85;;;10.20;99.90;;;;;;5082066;28;20028;-66
2022/04/12 05:49:38;;;;;;;2.92;1.30;;;10.30;99.90;;;;;;5081441;28;20050;-66
2022/04/12 05:52:04;;;;;;;3.50;1.55;;;10.30;99.90;;;;;;5075065;28;20036;-67
2022/04/12 05:54:29;;;;;;;3.28;1.42;;;10.30;99.90;;;;;;5076373;28;20403;-66
2022/04/12 05:56:55;;;;;;;7.22;2.20;;;10.30;99.90;;;;;;5064916;28;20031;-66
2022/04/12 05:59:22;;;;;;;5.60;1.90;;;10.30;99.90;;;;;;5078031;28;20534;-66
2022/04/12 06:01:48;;;;;;;4.90;1.80;;;10.30;99.90;;;;;;5076612;28;20035;-66
2022/04/12 06:04:14;;;;;;;6.30;2.17;;;10.40;99.90;;;;;;5075481;28;20025;-66
2022/04/12 06:06:41;;;;;;;5.75;2.20;;;10.50;99.90;;;;;;5084407;28;20035;-66
2022/04/12 06:09:07;;;;;;;5.03;1.88;;;10.60;99.90;;;;;;5078356;28;20070;-66
2022/04/12 06:11:33;;;;;;;4.10;1.42;;;10.60;99.90;;;;;;5082096;28;20027;-66
2022/04/12 06:13:59;;;;;;;5.85;1.80;;;10.80;99.90;;;;;;5064238;28;20024;-66
2022/04/12 06:16:24;;;;;;;6.25;1.73;;;11.00;99.90;;;;;;5090235;28;20077;-66
2022/04/12 06:18:50;;;;;;;3.83;1.40;;;10.80;99.90;;;;;;5067750;28;20063;-66
2022/04/12 06:21:16;;;;;;;2.97;1.38;;;11.10;99.90;;;;;;5077543;28;20019;-66
2022/04/12 06:23:42;;;;;;;3.53;1.45;;;11.20;99.90;;;;;;5075505;28;20567;-66
2022/04/12 06:26:08;;;;;;;5.50;1.80;;;11.30;99.90;;;;;;5082936;28;20502;-66
2022/04/12 06:28:34;;;;;;;6.25;1.90;;;11.40;99.90;;;;;;5080369;28;20037;-66
2022/04/12 06:30:59;;;;;;;7.00;1.67;;;11.40;99.90;;;;;;5078733;28;20111;-66
2022/04/12 06:33:26;;;;;;;5.10;1.70;;;11.50;99.90;;;;;;5082963;28;20039;-66
2022/04/12 06:35:52;;;;;;;4.70;2.00;;;11.60;99.90;;;;;;5059476;28;20123;-66
2022/04/12 06:38:18;;;;;;;5.75;1.83;;;11.60;99.90;;;;;;5082224;28;20167;-66
2022/04/12 06:40:45;;;;;;;4.72;2.05;;;11.60;99.90;;;;;;5062804;28;20028;-66
2022/04/12 06:43:11;;;;;;;6.82;1.70;;;11.70;99.90;;;;;;5072590;28;20104;-66
2022/04/12 06:45:37;;;;;;;4.00;1.60;;;11.70;99.90;;;;;;5065117;28;20028;-66
2022/04/12 06:48:03;;;;;;;5.45;1.70;;;11.70;99.90;;;;;;5081308;28;20556;-67
2022/04/12 06:50:29;;;;;;;3.50;1.48;;;11.80;99.90;;;;;;5065461;28;20052;-66
2022/04/12 06:52:57;;;;;;;8.40;2.10;;;11.90;99.90;;;;;;5088880;28;20016;-66
2022/04/12 06:55:23;;;;;;;10.13;1.75;;;11.90;99.90;;;;;;5087709;28;20029;-66
2022/04/12 06:57:49;;;;;;;7.65;1.83;;;12.00;99.90;;;;;;5078489;28;20029;-66
2022/04/12 07:00:17;;;;;;;15.45;2.00;;;12.10;99.90;;;;;;5079167;28;20027;-66
2022/04/12 07:02:43;;;;;;;6.90;2.00;;;12.30;99.80;;;;;;5085938;28;20386;-66
2022/04/12 07:05:09;;;;;;;4.70;1.77;;;12.30;99.70;;;;;;5080920;28;20021;-66
2022/04/12 07:07:36;;;;;;;4.10;1.70;;;12.50;99.80;;;;;;5084647;28;20028;-66
2022/04/12 07:10:07;;;;;;;5.63;1.90;;;12.60;99.90;;;;;;5080473;28;20028;-66
2022/04/12 07:12:33;;;;;;;7.45;2.03;;;12.60;99.50;;;;;;5064878;28;20029;-66
2022/04/12 07:14:59;;;;;;;4.15;1.90;;;12.70;99.30;;;;;;5082542;28;20173;-66
2022/04/12 07:17:25;;;;;;;6.47;2.10;;;12.80;99.30;;;;;;5085280;28;20016;-66
2022/04/12 07:19:50;;;;;;;5.55;1.67;;;12.90;98.20;;;;;;5065437;28;20028;-66
2022/04/12 07:22:16;;;;;;;6.68;1.95;;;13.00;98.30;;;;;;5082313;28;20020;-66
2022/04/12 07:24:42;;;;;;;7.40;1.95;;;13.20;98.50;;;;;;5072699;28;20033;-66
2022/04/12 07:27:07;;;;;;;4.97;1.80;;;13.30;98.10;;;;;;5082599;28;20072;-67
2022/04/12 07:29:34;;;;;;;6.82;2.13;;;13.40;97.90;;;;;;5087138;28;20040;-66
2022/04/12 07:32:00;;;;;;;6.43;1.80;;;13.50;97.50;;;;;;5075155;28;20437;-67
2022/04/12 07:34:26;;;;;;;8.10;2.10;;;13.50;97.30;;;;;;5072986;28;20063;-66
2022/04/12 07:36:55;;;;;;;6.20;1.95;;;13.60;97.40;;;;;;5073388;28;20035;-66
2022/04/12 07:39:22;;;;;;;5.60;1.77;;;13.80;97.50;;;;;;5080072;28;20028;-66
2022/04/12 07:41:48;;;;;;;6.93;1.50;;;13.90;97.30;;;;;;5068631;28;20028;-66
2022/04/12 07:44:15;;;;;;;6.38;1.88;;;14.00;97.20;;;;;;5078520;28;20024;-66
2022/04/12 07:46:41;;;;;;;6.40;1.85;;;14.00;97.30;;;;;;5090057;28;20020;-67
2022/04/12 07:49:07;;;;;;;4.82;1.60;;;14.20;96.70;;;;;;5079093;28;20422;-67
2022/04/12 07:51:33;;;;;;;5.30;1.85;;;14.20;97.00;;;;;;5063645;28;20024;-67
2022/04/12 07:54:01;;;;;;;4.22;1.42;;;14.50;96.90;;;;;;5089037;28;20070;-66
2022/04/12 07:56:26;;;;;;;6.13;1.70;;;14.50;96.40;;;;;;5074859;28;20499;-66
2022/04/12 07:58:52;;;;;;;4.10;1.50;;;14.70;96.20;;;;;;5081104;28;20032;-66
2022/04/12 08:01:18;;;;;;;5.75;2.00;;;14.70;95.90;;;;;;5064669;28;20020;-66
2022/04/12 08:03:43;;;;;;;6.05;1.80;;;14.70;95.90;;;;;;5081042;28;20031;-66
2022/04/12 08:06:09;;;;;;;5.18;1.77;;;14.80;96.30;;;;;;5078394;28;20460;-66
2022/04/12 08:08:35;;;;;;;3.53;1.45;;;14.80;95.60;;;;;;5085620;28;20028;-66
2022/04/12 08:11:01;;;;;;;4.20;1.40;;;15.00;95.80;;;;;;5078739;28;20431;-66
2022/04/12 08:13:27;;;;;;;4.53;1.30;;;15.00;95.40;;;;;;5081494;28;20032;-66
2022/04/12 08:15:52;;;;;;;6.45;1.38;;;15.20;95.10;;;;;;5079710;28;20057;-66
2022/04/12 08:18:18;;;;;;;4.07;1.48;;;15.50;95.20;;;;;;5075149;28;20017;-67
2022/04/12 08:20:43;;;;;;;4.57;1.55;;;15.80;94.80;;;;;;5085595;28;20024;-67
2022/04/12 08:23:09;;;;;;;4.90;1.48;;;16.10;94.00;;;;;;5082597;28;20059;-67
2022/04/12 08:25:35;;;;;;;5.60;1.25;;;16.70;93.30;;;;;;5077195;28;20055;-67
2022/04/12 08:28:00;;;;;;;3.10;1.10;;;17.20;93.00;;;;;;5077898;28;20048;-67
2022/04/12 08:30:26;;;;;;;5.35;1.60;;;;;;;;;;5067603;28;20403;-67
2022/04/12 08:32:52;;;;;;;5.35;1.63;;;18.00;91.80;;;;;;5080979;28;20028;-67
2022/04/12 08:35:18;;;;;;;3.47;1.23;;;18.30;91.10;;;;;;5083126;28;20486;-67
2022/04/12 08:37:44;;;;;;;3.88;1.40;;;18.50;90.50;;;;;;5076355;28;20491;-67
2022/04/12 08:40:10;;;;;;;4.03;1.20;;;18.80;90.90;;;;;;5066678;28;20028;-67
2022/04/12 08:42:36;;;;;;;3.60;1.10;;;19.00;90.30;;;;;;5063770;28;20403;-67
2022/04/12 08:45:05;;;;;;;4.72;1.52;;;19.20;90.00;;;;;;5067084;28;20032;-67
2022/04/12 08:47:34;;;;;;;4.32;1.40;;;19.60;87.80;;;;;;5085455;28;20016;-67
2022/04/12 08:50:01;;;;;;;5.38;1.50;;;19.70;89.30;;;;;;5082438;28;20036;-67
2022/04/12 08:52:27;;;;;;;2.60;1.00;;;20.20;86.40;;;;;;5086196;28;20016;-67
2022/04/12 08:54:53;;;;;;;5.05;1.23;;;20.40;86.70;;;;;;5064145;28;20020;-67
2022/04/12 08:57:19;;;;;;;4.47;1.20;;;20.70;83.80;;;;;;5079407;28;20020;-67
2022/04/12 08:59:46;;;;;;;4.13;1.33;;;21.20;84.10;;;;;;5085266;28;20020;-67
2022/04/12 09:02:12;;;;;;;3.08;1.10;;;21.40;81.70;;;;;;5082445;28;20534;-67
2022/04/12 09:04:39;;;;;;;4.18;1.17;;;21.50;82.40;;;;;;5081698;28;20054;-67
2022/04/12 09:07:09;;;;;;;4.45;1.27;;;21.70;81.50;;;;;;5066465;28;20016;-67
2022/04/12 09:09:34;;;;;;;;;;;21.40;80.30;;;;;;5076881;28;20139;-67
2022/04/12 09:12:06;;;;;;;3.33;1.17;;;21.50;80.10;;;;;;5066506;28;20342;-67
2022/04/12 09:14:52;;;;;;;4.40;1.33;;;21.80;78.60;;;;;;5077173;28;20020;-68
2022/04/12 09:17:35;;;;;;;7.40;1.52;;;21.70;79.60;;;;;;5077987;28;20368;-67
2022/04/12 09:20:02;;;;;;;5.78;1.25;;;21.60;78.30;;;;;;5082668;28;20019;-67
2022/04/12 09:22:28;;;;;;;3.53;1.23;;;21.70;77.40;;;;;;5078226;28;20028;-67
2022/04/12 09:24:56;;;;;;;4.03;1.30;;;21.20;78.10;;;;;;5084437;28;20020;-67
2022/04/12 09:27:24;;;;;;;4.88;1.33;;;21.50;78.50;;;;;;5084574;28;20078;-68
2022/04/12 09:29:52;;;;;;;3.85;1.10;;;21.90;79.10;;;;;;5086670;28;20488;-68
2022/04/12 09:32:26;;;;;;;3.90;1.10;;;22.90;76.70;;;;;;5086144;28;20051;-68
2022/04/12 09:34:53;;;;;;;3.92;1.17;;;23.40;76.20;;;;;;5064030;28;20033;-68
2022/04/12 09:37:29;;;;;;;3.38;1.10;;;23.50;75.80;;;;;;5079495;28;20020;-67
2022/04/12 09:40:03;;;;;;;3.25;0.90;;;22.90;73.90;;;;;;5085720;28;20024;-67
2022/04/12 09:42:54;;;;;;;1.83;0.75;;;22.30;74.40;;;;;;5092271;28;20024;-67
2022/04/12 09:45:27;;;;;;;2.72;0.90;;;22.00;74.50;;;;;;5088228;28;20522;-67
2022/04/12 09:47:56;;;;;;;3.30;1.23;;;21.70;74.00;;;;;;5086607;28;20090;-67
2022/04/12 09:50:24;;;;;;;3.88;1.20;;;21.50;75.10;;;;;;5089140;28;20032;-67
2022/04/12 09:52:58;;;;;;;2.88;1.02;;;21.40;74.40;;;;;;5073141;28;20059;-67
2022/04/12 09:55:44;;;;;;;4.03;1.10;;;21.20;75.50;;;;;;5080977;28;20036;-67
2022/04/12 09:58:15;;;;;;;4.85;1.20;;;21.80;75.20;;;;;;5081247;28;20499;-67
2022/04/12 10:00:42;;;;;;;2.92;1.05;;;21.90;74.00;;;;;;5070897;28;20590;-67
2022/04/12 10:03:11;;;;;;;4.60;1.20;;;22.10;74.00;;;;;;5080923;28;20020;-68
2022/04/12 10:05:36;;;;;;;1.65;0.70;;;22.20;72.90;;;;;;5082697;28;20035;-68
2022/04/12 10:08:09;;;;;;;2.45;0.95;;;22.50;73.20;;;;;;5082862;28;20106;-68
2022/04/12 10:10:36;;;;;;;3.13;1.10;;;22.70;72.10;;;;;;5087118;28;20032;-67
2022/04/12 10:13:01;;;;;;;3.05;1.00;;;23.00;72.30;;;;;;5087005;28;20384;-68
2022/04/12 10:15:28;;;;;;;3.15;0.93;;;23.80;72.30;;;;;;5065300;28;20028;-68
2022/04/12 10:17:55;;;;;;;2.67;0.70;;;23.90;70.40;;;;;;5088809;28;20020;-67
2022/04/12 10:20:22;;;;;;;3.50;1.10;;;23.80;69.80;;;;;;5068481;28;20024;-67
2022/04/12 10:22:49;;;;;;;3.47;0.90;;;23.80;69.30;;;;;;5065959;28;20025;-67
2022/04/12 10:25:21;;;;;;;4.63;1.00;;;24.10;69.20;;;;;;5081472;28;20028;-67
2022/04/12 10:27:48;;;;;;;2.88;0.90;;;24.20;68.20;;;;;;5065603;28;20143;-67
2022/04/12 10:30:17;;;;;;;1.60;0.80;;;24.50;68.90;;;;;;5084744;28;20024;-67
2022/04/12 10:33:06;;;;;;;1.80;0.80;;;23.80;67.90;;;;;;5081993;28;20104;-66
2022/04/12 10:35:59;;;;;;;2.17;0.95;;;23.60;68.40;;;;;;5079597;28;20373;-66
2022/04/12 10:38:39;;;;;;;2.45;0.80;;;23.50;68.40;;;;;;5088277;28;20055;-67
2022/04/12 10:41:32;;;;;;;2.95;0.90;;;23.80;67.60;;;;;;5080795;28;20109;-67
2022/04/12 10:43:59;;;;;;;1.55;0.70;;;24.10;69.80;;;;;;5079636;28;20104;-67
2022/04/12 10:46:44;;;;;;;4.10;0.80;;;23.70;65.70;;;;;;5065115;28;20028;-66
2022/04/12 10:49:12;;;;;;;2.60;1.00;;;23.70;66.50;;;;;;5080230;28;20484;-66
2022/04/12 10:51:41;;;;;;;2.97;1.00;;;23.60;67.10;;;;;;5091111;28;20043;-66
2022/04/12 10:54:28;;;;;;;2.10;0.70;;;24.40;66.20;;;;;;5085274;28;20031;-66
2022/04/12 10:57:19;;;;;;;2.10;0.85;;;24.40;64.80;;;;;;5081198;28;20050;-66
2022/04/12 11:00:10;;;;;;;2.58;0.95;;;24.50;64.40;;;;;;5071254;28;20115;-66
2022/04/12 11:03:01;;;;;;;2.70;0.90;;;24.90;65.80;;;;;;5082464;28;20115;-66
2022/04/12 11:05:36;;;;;;;1.67;0.70;;;25.00;64.20;;;;;;5086408;28;20059;-66
2022/04/12 11:08:13;;;;;;;2.55;1.23;;;25.00;65.40;;;;;;5063234;28;20028;-67
2022/04/12 11:11:04;;;;;;;2.22;0.90;;;24.40;65.60;;;;;;5083043;28;20036;-67
2022/04/12 11:13:34;;;;;;;2.88;0.90;;;24.60;65.50;;;;;;5041718;28;20044;-67
2022/04/12 11:16:08;;;;;;;3.17;0.93;;;25.40;64.80;;;;;;5084325;28;20086;-67
2022/04/12 11:18:54;;;;;;;1.85;0.75;;;26.00;62.50;;;;;;5080485;28;20019;-67
2022/04/12 11:21:59;;;;;;;2.83;1.05;;;25.80;62.70;;;;;;5079717;28;20032;-66
2022/04/12 11:24:25;;;;;;;2.60;0.82;;;25.90;62.80;;;;;;5083665;28;20046;-66
2022/04/12 11:27:04;;;;;;;1.67;0.60;;;25.80;62.50;;;;;;5078574;28;20411;-66
2022/04/12 11:29:30;;;;;;;3.00;0.93;;;26.00;62.10;;;;;;5082607;28;20101;-66
2022/04/12 11:31:57;;;;;;;2.70;0.95;;;25.80;62.20;;;;;;5081198;28;20107;-66
2022/04/12 11:34:25;;;;;;;1.15;0.63;;;27.10;62.90;;;;;;5082794;28;20035;-66
2022/04/12 11:36:59;;;;;;;1.52;0.80;;;27.60;61.50;;;;;;5081817;28;20546;-66
2022/04/12 11:39:27;;;;;;;3.35;0.80;;;27.00;62.00;;;;;;5081432;28;20024;-66
2022/04/12 11:42:02;;;;;;;2.17;0.88;;;27.20;61.40;;;;;;5079156;28;20593;-66
2022/04/12 11:44:28;;;;;;;1.98;0.82;;;27.40;60.00;;;;;;5078189;28;20476;-65
2022/04/12 11:47:01;;;;;;;2.13;0.85;;;27.20;60.00;;;;;;5079396;28;20154;-66
2022/04/12 11:49:31;;;;;;;2.88;0.80;;;27.30;60.30;;;;;;5081006;28;20094;-66
2022/04/12 11:52:01;;;;;;;;;;;27.70;59.90;;;;;;5086109;28;20020;-66
2022/04/12 11:54:38;;;;;;;2.83;0.70;;;28.30;60.00;;;;;;5080260;28;19999;-66
2022/04/12 11:57:06;;;;;;;5.53;0.90;;;29.50;59.10;;;;;;5077466;28;20047;-66
2022/04/12 11:59:48;;;;;;;1.35;0.60;;;29.70;58.80;;;;;;5084540;28;20116;-66
2022/04/12 12:02:16;;;;;;;2.10;0.75;;;29.20;58.30;;;;;;5061027;28;20527;-66
2022/04/12 12:04:47;;;;;;;3.92;0.75;;;28.90;57.20;;;;;;5080504;28;20074;-66
2022/04/12 12:07:14;;;;;;;2.50;0.82;;;28.80;56.90;;;;;;5078479;28;20748;-67
2022/04/12 12:09:54;;;;;;;3.00;0.90;;;28.70;57.20;;;;;;5081948;28;20551;-67
2022/04/12 12:12:20;;;;;;;2.53;0.90;;;28.60;57.20;;;;;;5085301;28;20063;-67
2022/04/12 12:14:46;;;;;;;1.77;0.85;;;28.90;57.20;;;;;;5083895;28;20044;-66
2022/04/12 12:17:18;;;;;;;2.35;0.80;;;28.40;57.40;;;;;;5075928;28;20032;-66
2022/04/12 12:19:45;;;;;;;1.42;0.80;;;28.10;57.20;;;;;;5070798;28;20081;-66
2022/04/12 12:22:12;;;;;;;1.52;0.70;;;28.50;58.30;;;;;;5073274;28;20016;-66
2022/04/12 12:24:51;;;;;;;2.10;0.82;;;29.80;56.70;;;;;;5071564;28;20111;-66
2022/04/12 12:27:49;;;;;;;4.70;1.13;;;30.00;56.50;;;;;;5069456;28;20492;-66
2022/04/12 12:30:19;;;;;;;3.10;0.95;;;29.80;55.80;;;;;;5058056;28;20044;-66
2022/04/12 12:32:45;;;;;;;3.22;0.85;;;28.90;54.80;;;;;;5074705;28;20061;-66
2022/04/12 12:35:13;;;;;;;2.08;0.80;;;27.90;55.50;;;;;;5072256;28;20024;-66
2022/04/12 12:37:43;;;;;;;2.30;0.80;;;27.70;56.30;;;;;;5059611;28;20373;-66
2022/04/12 12:40:22;;;;;;;;;;;28.20;56.10;;;;;;5075141;28;20031;-66
2022/04/12 12:42:49;;;;;;;;;;;28.30;56.00;;;;;;5077118;28;20280;-66
2022/04/12 12:45:19;;;;;;;2.00;0.80;;;28.60;56.40;;;;;;5071675;28;19935;-66
2022/04/12 12:47:48;;;;;;;1.88;0.65;;;28.10;56.50;;;;;;5076578;28;20035;-66
2022/04/12 12:50:15;;;;;;;2.53;0.80;;;27.90;55.40;;;;;;5083051;28;20035;-66
2022/04/12 12:52:43;;;;;;;2.13;0.80;;;27.80;56.60;;;;;;5081773;28;20028;-66
2022/04/12 12:55:21;;;;;;;3.45;1.10;;;27.40;55.40;;;;;;5062583;28;20061;-66
2022/04/12 12:57:54;;;;;;;2.47;0.90;;;26.80;56.00;;;;;;5078193;28;20119;-66
2022/04/12 13:00:21;;;;;;;2.75;0.77;;;26.40;55.90;;;;;;5084328;28;20032;-66